Time;durP1;ratioP1;P1;durP2;ratioP2;P2;SDS_P1;SDS_P2;PMS_P1;PMS_P2;Temp;Humidity;BMP_temperature;BMP_pressure;BME280_temperature;BME280_humidity;BME280_pressure;Samples;Min_cycle;Max_cycle;Signal;HPM_P1;HPM_P2
2023/04/09 00:01:50;;;;;;;32.90;20.00;;;8.70;99.90;;;;;;5004294;28;20187;-65
2023/04/09 00:04:15;;;;;;;30.43;19.57;;;8.60;99.90;;;;;;5010253;28;20187;-67
2023/04/09 00:06:41;;;;;;;33.90;20.70;;;8.70;99.90;;;;;;4998873;28;20541;-66
2023/04/09 00:09:07;;;;;;;30.57;20.73;;;8.60;99.90;;;;;;5042067;28;20274;-65
2023/04/09 00:11:32;;;;;;;33.17;21.27;;;8.50;99.90;;;;;;5003159;28;20585;-65
2023/04/09 00:13:58;;;;;;;31.27;20.63;;;8.50;99.90;;;;;;5003856;28;20198;-65
2023/04/09 00:16:24;;;;;;;34.67;21.43;;;8.50;99.90;;;;;;5003482;28;20218;-65
2023/04/09 00:18:50;;;;;;;40.07;20.30;;;8.40;99.90;;;;;;5013602;28;20231;-66
2023/04/09 00:21:16;;;;;;;35.00;21.00;;;8.50;99.90;;;;;;5011344;28;20184;-66
2023/04/09 00:23:42;;;;;;;36.60;21.10;;;8.40;99.90;;;;;;5010912;28;20198;-65
2023/04/09 00:26:08;;;;;;;33.83;20.00;;;8.40;99.90;;;;;;5007647;28;20218;-65
2023/04/09 00:28:34;;;;;;;37.23;21.57;;;8.40;99.90;;;;;;5009486;28;20237;-65
2023/04/09 00:31:01;;;;;;;31.97;19.80;;;8.40;99.90;;;;;;5021772;28;20251;-66
2023/04/09 00:33:26;;;;;;;32.50;18.40;;;8.30;99.90;;;;;;5044679;28;20293;-66
2023/04/09 00:35:52;;;;;;;30.53;19.40;;;8.40;99.90;;;;;;5013503;28;20671;-66
2023/04/09 00:38:18;;;;;;;32.07;20.27;;;8.80;99.90;;;;;;5014390;28;20264;-66
2023/04/09 00:40:48;;;;;;;33.17;19.00;;;8.90;99.90;;;;;;5019282;28;20558;-65
2023/04/09 00:43:14;;;;;;;37.47;21.17;;;8.90;99.90;;;;;;5022821;28;20187;-65
2023/04/09 00:45:40;;;;;;;30.60;19.23;;;9.00;99.90;;;;;;5018757;28;20773;-65
2023/04/09 00:48:06;;;;;;;29.27;18.40;;;8.80;99.90;;;;;;5019435;28;20278;-65
2023/04/09 00:50:32;;;;;;;27.70;17.73;;;8.50;99.90;;;;;;5020362;28;20272;-65
2023/04/09 00:52:57;;;;;;;32.63;18.93;;;8.40;99.90;;;;;;5029414;28;20674;-75
2023/04/09 00:55:24;;;;;;;30.33;18.67;;;8.40;99.90;;;;;;5025212;28;20207;-65
2023/04/09 00:57:50;;;;;;;33.43;21.17;;;8.30;99.90;;;;;;5016663;28;20204;-66
2023/04/09 01:00:15;;;;;;;32.17;18.07;;;8.30;99.90;;;;;;5025047;28;20204;-66
2023/04/09 01:02:41;;;;;;;32.30;19.20;;;8.30;99.90;;;;;;5029128;28;20266;-66
2023/04/09 01:05:08;;;;;;;35.43;19.20;;;8.30;99.90;;;;;;5008332;28;20191;-65
2023/04/09 01:08:02;;;;;;;32.07;19.53;;;8.30;99.90;;;;;;5011254;28;20707;-65
2023/04/09 01:10:37;;;;;;;29.83;19.27;;;8.20;99.90;;;;;;5025185;28;20488;-66
2023/04/09 01:13:21;;;;;;;30.10;17.77;;;8.10;99.90;;;;;;5011967;28;20180;-66
2023/04/09 01:15:59;;;;;;;30.50;18.07;;;8.10;99.90;;;;;;5022173;28;20624;-66
2023/04/09 01:18:32;;;;;;;34.20;18.07;;;8.20;99.90;;;;;;4995913;28;20235;-65
2023/04/09 01:21:01;;;;;;;30.53;18.10;;;8.30;99.90;;;;;;4999087;28;20188;-65
2023/04/09 01:23:46;;;;;;;29.63;19.10;;;8.20;99.90;;;;;;5006060;28;20188;-65
2023/04/09 01:26:37;;;;;;;27.57;17.37;;;8.10;99.90;;;;;;4997696;28;20183;-65
2023/04/09 01:29:04;;;;;;;37.03;19.87;;;7.90;99.90;;;;;;5052613;28;20187;-65
2023/04/09 01:31:34;;;;;;;31.70;18.43;;;7.80;99.90;;;;;;5024600;28;20193;-65
2023/04/09 01:34:00;;;;;;;29.00;17.87;;;7.90;99.90;;;;;;5009264;28;20191;-65
2023/04/09 01:36:27;;;;;;;31.87;19.87;;;8.00;99.90;;;;;;5025419;28;20184;-66
2023/04/09 01:38:54;;;;;;;41.30;20.23;;;8.00;99.90;;;;;;5043093;28;20187;-71
2023/04/09 01:41:21;;;;;;;33.70;18.90;;;8.10;99.90;;;;;;5011280;28;20541;-65
2023/04/09 01:43:51;;;;;;;33.13;18.70;;;8.00;99.90;;;;;;5016741;28;20499;-66
2023/04/09 01:46:18;;;;;;;30.83;18.57;;;8.00;99.90;;;;;;5023883;28;20178;-65
2023/04/09 01:48:45;;;;;;;32.73;19.37;;;8.10;99.90;;;;;;5028849;28;20633;-65
2023/04/09 01:51:13;;;;;;;34.17;21.00;;;8.20;99.90;;;;;;5022950;28;20188;-65
2023/04/09 01:53:39;;;;;;;29.63;18.23;;;8.00;99.90;;;;;;5024808;28;20580;-65
2023/04/09 01:56:06;;;;;;;32.50;19.07;;;7.80;99.90;;;;;;5000531;28;20192;-66
2023/04/09 01:58:33;;;;;;;30.87;19.27;;;7.80;99.90;;;;;;5019662;28;20215;-65
2023/04/09 02:01:10;;;;;;;29.30;19.53;;;7.90;99.90;;;;;;5006313;28;20196;-65
2023/04/09 02:03:46;;;;;;;34.53;20.37;;;7.90;99.90;;;;;;5009210;28;20574;-65
2023/04/09 02:06:16;;;;;;;34.27;19.80;;;8.00;99.90;;;;;;5026328;28;20672;-65
2023/04/09 02:08:46;;;;;;;38.10;21.20;;;8.10;99.90;;;;;;5019122;28;20817;-65
2023/04/09 02:11:13;;;;;;;35.40;20.00;;;8.10;99.90;;;;;;5011943;28;20266;-65
2023/04/09 02:13:40;;;;;;;34.07;20.37;;;8.00;99.90;;;;;;5023041;28;20237;-65
2023/04/09 02:16:07;;;;;;;33.53;20.97;;;8.00;99.90;;;;;;5015406;28;20959;-65
2023/04/09 02:18:33;;;;;;;34.00;19.87;;;8.00;99.90;;;;;;5040361;28;20333;-65
2023/04/09 02:20:59;;;;;;;34.53;21.30;;;8.00;99.90;;;;;;5004854;28;20282;-65
2023/04/09 02:23:26;;;;;;;34.60;21.10;;;8.00;99.90;;;;;;5002153;28;20263;-65
2023/04/09 02:25:52;;;;;;;36.30;21.53;;;7.90;99.90;;;;;;5011084;28;20194;-65
2023/04/09 02:28:18;;;;;;;34.37;19.40;;;7.80;99.90;;;;;;5006511;28;20692;-65
2023/04/09 02:30:44;;;;;;;39.27;20.10;;;7.60;99.90;;;;;;5012384;28;20274;-65
2023/04/09 02:33:10;;;;;;;36.50;20.67;;;7.60;99.90;;;;;;5006719;28;20215;-65
2023/04/09 02:35:35;;;;;;;34.63;19.30;;;7.50;99.90;;;;;;5007437;28;20361;-65
2023/04/09 02:38:01;;;;;;;35.70;20.60;;;7.60;99.90;;;;;;5014276;28;20214;-65
2023/04/09 02:40:27;;;;;;;33.03;20.00;;;7.70;99.90;;;;;;5005929;28;20606;-65
2023/04/09 02:42:53;;;;;;;40.90;22.07;;;7.80;99.90;;;;;;5006465;28;20275;-65
2023/04/09 02:45:19;;;;;;;37.30;21.53;;;7.90;99.90;;;;;;5006875;28;20180;-65
2023/04/09 02:47:44;;;;;;;39.43;20.70;;;7.80;99.90;;;;;;5038014;28;20203;-65
2023/04/09 02:50:10;;;;;;;41.50;23.60;;;7.80;99.90;;;;;;5001206;28;20183;-65
2023/04/09 02:52:36;;;;;;;40.50;21.73;;;7.90;99.90;;;;;;5017751;28;20188;-65
2023/04/09 02:55:02;;;;;;;41.13;23.57;;;7.90;99.90;;;;;;5039806;28;20197;-66
2023/04/09 02:57:28;;;;;;;38.27;22.43;;;7.70;99.90;;;;;;5015244;28;20239;-65
2023/04/09 02:59:54;;;;;;;38.87;22.20;;;7.60;99.90;;;;;;5006333;28;20569;-65
2023/04/09 03:02:19;;;;;;;32.93;19.93;;;7.50;99.90;;;;;;4999619;28;20192;-65
2023/04/09 03:04:45;;;;;;;39.50;20.30;;;7.50;99.90;;;;;;5001453;28;20795;-65
2023/04/09 03:07:11;;;;;;;40.23;20.77;;;7.60;99.90;;;;;;5009774;28;20191;-65
2023/04/09 03:09:36;;;;;;;42.87;22.70;;;7.40;99.90;;;;;;5035968;28;20245;-65
2023/04/09 03:12:02;;;;;;;39.00;20.90;;;7.40;99.90;;;;;;5011198;28;20238;-65
2023/04/09 03:14:28;;;;;;;42.53;21.60;;;7.30;99.90;;;;;;5000307;28;20191;-65
2023/04/09 03:16:53;;;;;;;39.10;21.17;;;7.20;99.90;;;;;;5005069;28;20246;-65
2023/04/09 03:19:19;;;;;;;42.80;21.87;;;7.20;99.90;;;;;;5010492;28;20195;-66
2023/04/09 03:21:45;;;;;;;38.53;21.83;;;7.30;99.90;;;;;;5010588;28;20649;-65
2023/04/09 03:24:11;;;;;;;37.27;20.90;;;7.40;99.90;;;;;;5002351;28;20237;-66
2023/04/09 03:26:37;;;;;;;41.87;20.33;;;7.30;99.90;;;;;;5011578;28;20218;-65
2023/04/09 03:29:03;;;;;;;32.97;18.83;;;7.30;99.90;;;;;;5003437;28;20219;-71
2023/04/09 03:31:29;;;;;;;38.50;22.13;;;7.20;99.90;;;;;;5002385;28;20270;-65
2023/04/09 03:33:55;;;;;;;38.43;21.13;;;7.10;99.90;;;;;;5007750;28;20610;-65
2023/04/09 03:36:21;;;;;;;38.23;20.57;;;7.10;99.90;;;;;;5012283;28;20229;-65
2023/04/09 03:38:47;;;;;;;38.30;20.97;;;7.10;99.90;;;;;;5005901;28;20238;-65
2023/04/09 03:41:13;;;;;;;39.83;21.53;;;7.10;99.90;;;;;;5010893;28;20651;-66
2023/04/09 03:43:38;;;;;;;36.20;20.40;;;7.00;99.90;;;;;;5013388;28;20191;-66
2023/04/09 03:46:14;;;;;;;38.63;20.77;;;7.00;99.90;;;;;;5007913;28;20199;-69
2023/04/09 03:48:40;;;;;;;36.63;20.03;;;7.00;99.90;;;;;;5008805;28;20190;-65
2023/04/09 03:51:10;;;;;;;38.17;19.90;;;7.00;99.90;;;;;;5017501;28;20200;-65
2023/04/09 03:53:36;;;;;;;38.57;20.63;;;6.90;99.90;;;;;;5001908;28;20176;-65
2023/04/09 03:56:01;;;;;;;43.40;21.20;;;6.90;99.90;;;;;;5035360;28;20719;-65
2023/04/09 03:58:27;;;;;;;38.20;18.53;;;6.80;99.90;;;;;;5013237;28;20278;-65
2023/04/09 04:00:53;;;;;;;43.17;23.50;;;6.80;99.90;;;;;;5004838;28;20663;-65
2023/04/09 04:03:19;;;;;;;40.27;21.20;;;6.80;99.90;;;;;;5012172;28;20184;-65
2023/04/09 04:05:44;;;;;;;40.53;21.80;;;6.80;99.90;;;;;;5013183;28;20202;-65
2023/04/09 04:08:10;;;;;;;37.80;19.77;;;6.80;99.90;;;;;;5003423;28;20287;-65
2023/04/09 04:10:36;;;;;;;34.17;20.27;;;6.80;99.90;;;;;;5001069;28;20275;-65
2023/04/09 04:13:02;;;;;;;31.17;18.03;;;6.80;99.90;;;;;;5007486;28;20230;-66
2023/04/09 04:15:28;;;;;;;37.33;21.40;;;6.80;99.90;;;;;;5006997;28;20242;-65
2023/04/09 04:17:54;;;;;;;43.70;21.67;;;6.70;99.90;;;;;;5008302;28;20239;-65
2023/04/09 04:20:19;;;;;;;39.53;21.03;;;6.70;99.90;;;;;;4998926;28;20192;-65
2023/04/09 04:22:45;;;;;;;40.47;20.70;;;6.70;99.90;;;;;;4995550;28;20195;-65
2023/04/09 04:25:11;;;;;;;34.47;20.47;;;6.70;99.90;;;;;;5022064;28;20729;-65
2023/04/09 04:27:36;;;;;;;35.63;19.50;;;6.70;99.90;;;;;;5013670;28;20560;-65
2023/04/09 04:30:02;;;;;;;38.00;20.43;;;6.70;99.90;;;;;;5012138;28;20184;-65
2023/04/09 04:32:28;;;;;;;39.67;21.43;;;6.70;99.90;;;;;;5020320;28;20182;-65
2023/04/09 04:34:54;;;;;;;39.93;20.47;;;6.70;99.90;;;;;;5020502;28;20192;-65
2023/04/09 04:37:20;;;;;;;36.20;20.97;;;6.70;99.90;;;;;;5007282;28;20219;-65
2023/04/09 04:39:45;;;;;;;36.13;20.10;;;6.60;99.90;;;;;;5026613;28;20339;-65
2023/04/09 04:42:11;;;;;;;37.93;21.90;;;6.60;99.90;;;;;;5010470;28;20352;-65
2023/04/09 04:44:37;;;;;;;30.13;21.20;;;6.60;99.90;;;;;;5028585;28;20182;-65
2023/04/09 04:47:02;;;;;;;36.90;19.47;;;6.60;99.90;;;;;;5015161;28;20241;-65
2023/04/09 04:49:29;;;;;;;35.53;19.73;;;6.60;99.90;;;;;;5023384;28;20608;-65
2023/04/09 04:51:54;;;;;;;32.53;18.67;;;6.60;99.90;;;;;;5013310;28;20205;-65
2023/04/09 04:54:20;;;;;;;34.57;18.83;;;6.60;99.90;;;;;;5018857;28;20651;-66
2023/04/09 04:56:46;;;;;;;42.53;20.87;;;6.60;99.90;;;;;;5061517;28;20190;-65
2023/04/09 04:59:11;;;;;;;33.47;19.33;;;6.50;99.90;;;;;;4998185;28;20196;-65
2023/04/09 05:01:37;;;;;;;35.23;19.00;;;6.40;99.90;;;;;;5024391;28;20191;-65
2023/04/09 05:04:03;;;;;;;39.47;20.10;;;6.40;99.90;;;;;;5012988;28;20183;-65
2023/04/09 05:06:29;;;;;;;39.97;21.03;;;6.40;99.90;;;;;;5038706;28;20192;-65
2023/04/09 05:08:57;;;;;;;36.87;21.67;;;6.40;99.90;;;;;;5020096;28;20199;-65
2023/04/09 05:11:26;;;;;;;33.53;21.27;;;6.40;99.90;;;;;;5012982;28;20192;-65
2023/04/09 05:13:52;;;;;;;45.73;20.37;;;6.40;99.90;;;;;;5060302;28;20182;-65
2023/04/09 05:16:20;;;;;;;39.83;21.77;;;6.50;99.90;;;;;;5012628;28;20662;-65
2023/04/09 05:18:46;;;;;;;41.23;19.33;;;6.50;99.90;;;;;;5038190;28;20230;-65
2023/04/09 05:21:12;;;;;;;41.97;21.33;;;6.40;99.90;;;;;;5000707;28;20192;-65
2023/04/09 05:23:38;;;;;;;44.93;21.10;;;6.50;99.90;;;;;;5006792;28;20188;-65
2023/04/09 05:26:04;;;;;;;33.90;18.60;;;6.50;99.90;;;;;;5005793;28;20183;-65
2023/04/09 05:28:30;;;;;;;40.13;19.57;;;6.50;99.90;;;;;;5010433;28;20702;-65
2023/04/09 05:30:55;;;;;;;35.87;21.13;;;6.50;99.90;;;;;;5004104;28;20187;-65
2023/04/09 05:33:21;;;;;;;38.63;20.43;;;6.60;99.90;;;;;;5013436;28;20764;-65
2023/04/09 05:35:47;;;;;;;39.43;20.43;;;6.70;99.90;;;;;;5006449;28;20700;-65
2023/04/09 05:38:12;;;;;;;42.37;21.87;;;6.60;99.90;;;;;;5009087;28;20246;-65
2023/04/09 05:40:38;;;;;;;40.93;20.73;;;6.70;99.90;;;;;;5005165;28;20187;-65
2023/04/09 05:43:04;;;;;;;41.63;21.07;;;6.80;99.90;;;;;;5000542;28;20192;-65
2023/04/09 05:45:30;;;;;;;37.70;20.83;;;6.80;99.90;;;;;;5008582;28;20191;-65
2023/04/09 05:47:56;;;;;;;40.97;20.50;;;6.90;99.90;;;;;;5004783;28;20270;-65
2023/04/09 05:50:22;;;;;;;39.03;21.40;;;6.90;99.90;;;;;;5009152;28;20209;-65
2023/04/09 05:52:48;;;;;;;40.30;22.93;;;7.00;99.90;;;;;;5009945;28;20191;-65
2023/04/09 05:55:13;;;;;;;46.43;23.50;;;7.20;99.90;;;;;;5010595;28;20190;-65
2023/04/09 05:57:39;;;;;;;41.77;22.77;;;7.20;99.90;;;;;;4997812;28;20248;-65
2023/04/09 06:00:06;;;;;;;40.07;21.53;;;7.40;99.90;;;;;;5007020;28;20184;-65
2023/04/09 06:02:32;;;;;;;46.73;22.67;;;7.40;99.90;;;;;;5021864;28;20199;-65
2023/04/09 06:04:58;;;;;;;44.70;23.83;;;7.50;99.90;;;;;;5010419;28;20187;-65
2023/04/09 06:07:24;;;;;;;54.67;26.50;;;7.70;99.90;;;;;;5017035;28;20199;-65
2023/04/09 06:09:49;;;;;;;54.27;24.97;;;8.00;99.90;;;;;;5009230;28;20270;-65
2023/04/09 06:12:15;;;;;;;47.20;24.77;;;8.00;99.90;;;;;;5017526;28;20202;-65
2023/04/09 06:14:41;;;;;;;52.43;26.17;;;8.10;99.90;;;;;;5014866;28;20195;-65
2023/04/09 06:17:06;;;;;;;50.40;26.57;;;8.20;99.90;;;;;;5009535;28;20234;-65
2023/04/09 06:19:32;;;;;;;62.67;28.57;;;8.30;99.90;;;;;;5024346;28;20234;-65
2023/04/09 06:21:58;;;;;;;56.27;27.73;;;8.40;99.90;;;;;;5021710;28;20242;-65
2023/04/09 06:24:24;;;;;;;65.03;30.70;;;8.50;99.90;;;;;;5022603;28;20183;-64
2023/04/09 06:26:49;;;;;;;58.30;28.80;;;8.50;99.90;;;;;;4996840;28;20188;-65
2023/04/09 06:29:15;;;;;;;55.80;26.93;;;8.50;99.90;;;;;;5000872;28;20191;-65
2023/04/09 06:31:41;;;;;;;61.57;28.50;;;8.40;99.90;;;;;;5010102;28;20187;-66
2023/04/09 06:34:06;;;;;;;58.87;29.53;;;8.50;99.90;;;;;;5006507;28;20633;-66
2023/04/09 06:36:33;;;;;;;66.53;28.97;;;8.60;99.90;;;;;;4995091;28;20219;-65
2023/04/09 06:38:59;;;;;;;64.53;31.13;;;8.70;99.90;;;;;;4995229;28;20204;-64
2023/04/09 06:41:27;;;;;;;61.13;29.53;;;8.50;99.90;;;;;;5009808;28;20671;-66
2023/04/09 06:43:53;;;;;;;60.57;29.77;;;8.60;99.90;;;;;;5005999;28;20183;-68
2023/04/09 06:46:20;;;;;;;67.80;30.60;;;8.70;99.90;;;;;;5038852;28;20299;-64
2023/04/09 06:48:46;;;;;;;64.00;30.67;;;8.50;99.90;;;;;;5012528;28;20188;-65
2023/04/09 06:51:12;;;;;;;67.87;30.83;;;8.30;99.90;;;;;;5007184;28;20200;-65
2023/04/09 06:53:38;;;;;;;57.80;29.93;;;8.40;99.90;;;;;;5016848;28;20656;-65
2023/04/09 06:56:04;;;;;;;67.77;32.43;;;8.40;99.90;;;;;;5013253;28;20199;-65
2023/04/09 06:58:30;;;;;;;65.63;30.50;;;8.60;99.90;;;;;;5011943;28;20551;-65
2023/04/09 07:00:55;;;;;;;61.47;30.23;;;9.00;99.90;;;;;;5027060;28;20197;-66
2023/04/09 07:03:21;;;;;;;60.37;29.17;;;9.00;99.90;;;;;;5014100;28;20229;-65
2023/04/09 07:05:47;;;;;;;61.10;32.03;;;9.20;99.90;;;;;;5010803;28;20188;-64
2023/04/09 07:08:13;;;;;;;57.67;29.77;;;9.00;99.90;;;;;;5009665;28;20656;-64
2023/04/09 07:10:39;;;;;;;61.80;29.03;;;9.20;99.90;;;;;;5011108;28;20314;-65
2023/04/09 07:13:05;;;;;;;61.97;31.43;;;9.50;99.90;;;;;;5008260;28;20523;-65
2023/04/09 07:15:31;;;;;;;54.83;28.40;;;9.50;99.90;;;;;;5019712;28;20198;-72
2023/04/09 07:17:57;;;;;;;62.43;29.30;;;9.40;99.90;;;;;;5008377;28;20238;-64
2023/04/09 07:20:22;;;;;;;58.80;29.47;;;9.60;99.90;;;;;;5048202;28;20198;-66
2023/04/09 07:22:48;;;;;;;64.67;29.37;;;9.30;99.90;;;;;;5017610;28;20270;-67
2023/04/09 07:25:15;;;;;;;59.60;30.00;;;9.10;99.90;;;;;;5016345;28;20199;-66
2023/04/09 07:27:41;;;;;;;65.80;30.53;;;9.10;99.90;;;;;;5013777;28;20187;-65
2023/04/09 07:30:07;;;;;;;58.67;31.17;;;9.30;99.90;;;;;;5013726;28;20668;-66
2023/04/09 07:32:33;;;;;;;65.60;32.45;;;9.90;99.90;;;;;;5007535;28;20189;-68
2023/04/09 07:34:58;;;;;;;59.60;30.63;;;11.10;99.90;;;;;;5011503;28;20191;-73
2023/04/09 07:37:25;;;;;;;58.67;29.63;;;12.40;99.90;;;;;;5008226;28;20241;-67
2023/04/09 07:39:51;;;;;;;54.95;28.63;;;13.00;99.90;;;;;;5038331;28;20187;-70
2023/04/09 07:42:17;;;;;;;63.70;29.98;;;13.40;99.90;;;;;;5023332;28;20191;-68
2023/04/09 07:44:42;;;;;;;50.03;26.25;;;13.80;99.90;;;;;;5003022;28;20191;-68
2023/04/09 07:47:08;;;;;;;48.95;27.77;;;14.70;99.90;;;;;;5014050;28;20195;-67
2023/04/09 07:49:40;;;;;;;50.90;27.65;;;14.80;99.90;;;;;;5014581;28;20590;-67
2023/04/09 07:52:06;;;;;;;58.00;27.48;;;15.60;99.90;;;;;;5007155;28;20190;-67
2023/04/09 07:54:32;;;;;;;51.20;27.83;;;16.90;99.90;;;;;;5002400;28;20212;-68
2023/04/09 07:57:00;;;;;;;50.05;25.10;;;16.50;99.90;;;;;;5009034;28;20227;-68
2023/04/09 07:59:26;;;;;;;51.65;26.05;;;17.30;99.90;;;;;;5009479;28;20254;-67
2023/04/09 08:01:52;;;;;;;43.90;24.70;;;17.60;99.90;;;;;;5002783;28;20555;-67
2023/04/09 08:04:18;;;;;;;48.17;26.17;;;18.10;99.90;;;;;;5008978;28;20203;-67
2023/04/09 08:06:49;;;;;;;52.25;25.77;;;18.10;99.90;;;;;;5008970;28;20187;-68
2023/04/09 08:09:18;;;;;;;43.20;24.33;;;17.80;99.90;;;;;;5041131;28;20179;-71
2023/04/09 08:11:44;;;;;;;49.70;24.35;;;18.20;99.90;;;;;;5010328;28;20180;-68
2023/04/09 08:14:14;;;;;;;50.72;25.33;;;18.80;99.90;;;;;;5012287;28;20194;-67
2023/04/09 08:16:41;;;;;;;49.25;25.45;;;18.40;99.90;;;;;;5012464;28;20227;-67
2023/04/09 08:19:08;;;;;;;47.25;24.50;;;18.20;99.90;;;;;;5010315;28;20548;-67
2023/04/09 08:21:35;;;;;;;42.15;22.55;;;18.10;99.90;;;;;;5003742;28;20188;-67
2023/04/09 08:24:03;;;;;;;44.50;25.02;;;18.70;99.90;;;;;;5012918;28;20194;-67
2023/04/09 08:26:29;;;;;;;41.22;21.85;;;19.30;99.90;;;;;;5001174;28;20274;-71
2023/04/09 08:28:55;;;;;;;44.92;24.98;;;20.50;99.90;;;;;;5001751;28;20200;-66
2023/04/09 08:31:21;;;;;;;37.08;21.85;;;20.60;99.90;;;;;;5008297;28;20242;-67
2023/04/09 08:33:46;;;;;;;40.15;22.33;;;20.00;99.90;;;;;;5004439;28;20191;-67
2023/04/09 08:36:12;;;;;;;40.90;22.33;;;20.80;99.90;;;;;;5021913;28;20191;-67
2023/04/09 08:38:38;;;;;;;37.15;21.65;;;21.40;99.90;;;;;;5012246;28;20573;-68
2023/04/09 08:41:04;;;;;;;41.72;22.65;;;21.40;99.90;;;;;;5013882;28;20188;-68
2023/04/09 08:43:32;;;;;;;42.58;23.58;;;21.90;99.90;;;;;;5000932;28;20227;-67
2023/04/09 08:45:58;;;;;;;44.63;24.85;;;22.70;99.90;;;;;;5003562;28;20196;-67
2023/04/09 08:48:24;;;;;;;40.83;22.60;;;22.10;99.90;;;;;;5008779;28;20224;-67
2023/04/09 08:50:50;;;;;;;38.78;23.20;;;22.20;99.90;;;;;;4998128;28;20184;-67
2023/04/09 08:53:16;;;;;;;41.03;22.77;;;22.30;99.90;;;;;;5010558;28;20266;-67
2023/04/09 08:55:45;;;;;;;40.85;21.13;;;21.60;99.90;;;;;;5007401;28;20203;-68
2023/04/09 08:58:11;;;;;;;41.30;22.73;;;20.90;99.90;;;;;;5000644;28;20239;-73
2023/04/09 09:00:37;;;;;;;40.22;23.40;;;20.20;99.90;;;;;;5002672;28;20645;-67
2023/04/09 09:03:06;;;;;;;43.88;23.95;;;19.10;99.90;;;;;;5006364;28;20188;-69
2023/04/09 09:05:37;;;;;;;43.00;24.17;;;18.20;99.90;;;;;;4995798;28;20187;-67
2023/04/09 09:08:03;;;;;;;41.72;23.38;;;17.60;99.90;;;;;;5000629;28;20246;-67
2023/04/09 09:10:43;;;;;;;41.63;23.42;;;17.00;99.90;;;;;;5040400;28;20187;-67
2023/04/09 09:13:22;;;;;;;41.17;22.95;;;16.50;99.90;;;;;;5007153;28;20191;-70
2023/04/09 09:15:51;;;;;;;37.55;21.50;;;16.00;99.90;;;;;;5032888;28;20549;-67
2023/04/09 09:18:18;;;;;;;46.47;23.15;;;15.90;99.90;;;;;;5007257;28;20254;-67
2023/04/09 09:20:44;;;;;;;48.88;22.42;;;16.00;99.90;;;;;;5005482;28;20179;-72
2023/04/09 09:23:09;;;;;;;37.45;20.80;;;16.30;99.90;;;;;;5005979;28;20195;-68
2023/04/09 09:25:42;;;;;;;41.80;23.27;;;16.20;99.90;;;;;;5006636;28;20191;-67
2023/04/09 09:28:11;;;;;;;37.55;21.40;;;16.20;99.90;;;;;;4996231;28;20187;-67
2023/04/09 09:30:38;;;;;;;36.78;21.98;;;16.20;99.90;;;;;;4994928;28;20192;-67
2023/04/09 09:33:07;;;;;;;40.63;20.15;;;16.40;99.90;;;;;;5044607;28;20183;-68
2023/04/09 09:35:50;;;;;;;37.08;21.35;;;16.40;99.90;;;;;;4997318;28;20191;-67
2023/04/09 09:38:16;;;;;;;40.03;22.35;;;15.60;99.90;;;;;;4999452;28;20215;-67
2023/04/09 09:40:42;;;;;;;33.10;20.65;;;14.70;99.90;;;;;;5002433;28;20180;-67
2023/04/09 09:43:08;;;;;;;43.05;21.83;;;14.50;99.90;;;;;;5003065;28;20186;-68
2023/04/09 09:45:36;;;;;;;39.08;21.65;;;14.50;99.90;;;;;;5004352;28;20255;-67
2023/04/09 09:48:02;;;;;;;40.80;19.98;;;14.70;99.90;;;;;;4996402;28;20191;-68
2023/04/09 09:50:30;;;;;;;43.67;22.55;;;15.10;99.90;;;;;;5012298;28;20222;-67
2023/04/09 09:53:07;;;;;;;39.10;20.70;;;15.30;99.90;;;;;;5016748;28;20217;-68
2023/04/09 09:55:37;;;;;;;38.50;22.40;;;15.20;99.90;;;;;;5007259;28;20215;-68
2023/04/09 09:58:11;;;;;;;39.05;20.60;;;15.10;99.90;;;;;;5027172;28;20225;-67
2023/04/09 10:00:39;;;;;;;46.78;22.35;;;15.20;99.90;;;;;;5009829;28;20192;-67
2023/04/09 10:03:22;;;;;;;38.28;21.80;;;15.40;99.90;;;;;;5002914;28;20182;-67
2023/04/09 10:05:49;;;;;;;32.42;19.05;;;15.40;99.90;;;;;;5053396;28;20180;-68
2023/04/09 10:08:15;;;;;;;34.78;19.70;;;15.70;99.90;;;;;;5005518;28;20254;-67
2023/04/09 10:10:41;;;;;;;40.72;21.45;;;15.60;99.90;;;;;;5024594;28;20699;-69
2023/04/09 10:13:17;;;;;;;37.88;19.70;;;15.70;99.90;;;;;;5004338;28;20544;-67
2023/04/09 10:15:43;;;;;;;41.20;22.50;;;15.80;99.90;;;;;;5019345;28;20182;-67
2023/04/09 10:18:09;;;;;;;34.95;20.75;;;15.70;99.90;;;;;;5019150;28;20584;-67
2023/04/09 10:20:49;;;;;;;38.83;20.05;;;15.80;99.90;;;;;;5003975;28;20188;-67
2023/04/09 10:23:26;;;;;;;33.63;18.35;;;16.10;99.90;;;;;;4999220;28;20644;-69
2023/04/09 10:25:52;;;;;;;41.75;21.58;;;16.30;99.90;;;;;;5002409;28;20175;-67
2023/04/09 10:28:18;;;;;;;35.55;20.33;;;16.40;99.90;;;;;;5009103;28;20188;-67
2023/04/09 10:30:45;;;;;;;46.92;20.48;;;16.20;99.90;;;;;;5003465;28;20188;-68
2023/04/09 10:33:16;;;;;;;35.47;19.60;;;16.10;99.90;;;;;;4999165;28;20648;-67
2023/04/09 10:35:45;;;;;;;37.65;20.38;;;15.80;99.90;;;;;;5000647;28;20578;-68
2023/04/09 10:38:13;;;;;;;34.83;19.42;;;15.80;99.90;;;;;;5002300;28;20219;-67
2023/04/09 10:40:50;;;;;;;36.00;19.00;;;15.80;99.90;;;;;;5007289;28;20175;-68
2023/04/09 10:43:20;;;;;;;34.10;19.45;;;15.40;99.90;;;;;;5011778;28;20178;-67
2023/04/09 10:45:52;;;;;;;35.40;18.98;;;15.90;99.90;;;;;;5008383;28;20705;-67
2023/04/09 10:48:19;;;;;;;35.38;20.08;;;16.20;99.90;;;;;;5012545;28;20515;-67
2023/04/09 10:50:45;;;;;;;31.88;17.30;;;16.40;99.90;;;;;;5003551;28;20211;-67
2023/04/09 10:53:22;;;;;;;29.00;18.17;;;16.50;99.90;;;;;;5044295;28;20656;-67
2023/04/09 10:55:52;;;;;;;35.15;18.88;;;16.40;99.90;;;;;;5047260;28;20654;-71
2023/04/09 10:58:18;;;;;;;28.65;17.27;;;16.30;99.90;;;;;;5010186;28;20216;-68
2023/04/09 11:00:45;;;;;;;31.25;17.70;;;16.40;99.90;;;;;;5008586;28;20184;-68
2023/04/09 11:03:21;;;;;;;37.88;20.48;;;16.50;99.90;;;;;;5014963;28;20604;-68
2023/04/09 11:05:59;;;;;;;35.97;19.15;;;16.50;99.90;;;;;;5011867;28;20217;-68
2023/04/09 11:08:30;;;;;;;27.58;16.00;;;16.40;99.90;;;;;;5013438;28;20191;-68
2023/04/09 11:10:57;;;;;;;36.38;18.58;;;16.20;99.90;;;;;;5013364;28;20188;-69
2023/04/09 11:13:23;;;;;;;32.72;18.15;;;16.10;99.90;;;;;;5010273;28;20188;-70
2023/04/09 11:15:49;;;;;;;32.92;18.55;;;16.00;99.90;;;;;;5012707;28;20191;-67
2023/04/09 11:18:19;;;;;;;36.53;18.33;;;16.10;99.90;;;;;;5008571;28;20746;-67
2023/04/09 11:20:45;;;;;;;30.55;17.13;;;16.20;99.90;;;;;;5012646;28;20230;-67
2023/04/09 11:23:12;;;;;;;31.95;17.48;;;16.10;99.90;;;;;;5021538;28;20277;-72
2023/04/09 11:25:38;;;;;;;34.05;16.52;;;15.70;99.90;;;;;;5010954;28;20184;-67
2023/04/09 11:28:04;;;;;;;31.98;17.85;;;15.60;99.90;;;;;;5007139;28;20191;-68
2023/04/09 11:30:30;;;;;;;33.45;18.40;;;16.00;99.90;;;;;;5039853;28;20296;-66
2023/04/09 11:32:56;;;;;;;29.98;18.70;;;16.40;99.90;;;;;;5001130;28;20275;-67
2023/04/09 11:35:22;;;;;;;33.83;16.70;;;16.70;99.90;;;;;;5008397;28;20202;-66
2023/04/09 11:37:49;;;;;;;30.25;16.45;;;16.70;99.90;;;;;;5013428;28;20262;-66
2023/04/09 11:40:19;;;;;;;24.25;15.40;;;16.80;99.90;;;;;;5004039;28;20179;-66
2023/04/09 11:42:48;;;;;;;26.55;15.48;;;17.10;99.90;;;;;;5007959;28;20219;-65
2023/04/09 11:45:15;;;;;;;31.55;16.00;;;17.40;99.90;;;;;;5013157;28;20652;-66
2023/04/09 11:47:41;;;;;;;22.88;15.25;;;17.70;99.90;;;;;;5013408;28;20195;-66
2023/04/09 11:50:09;;;;;;;21.60;14.80;;;17.90;99.90;;;;;;5013295;28;20668;-66
2023/04/09 11:52:35;;;;;;;27.98;14.82;;;18.10;99.90;;;;;;5010648;28;20184;-66
2023/04/09 11:55:04;;;;;;;29.65;15.93;;;18.00;99.90;;;;;;5009581;28;20213;-66
2023/04/09 11:57:43;;;;;;;22.58;14.00;;;17.90;99.90;;;;;;5005304;28;20298;-65
2023/04/09 12:00:11;;;;;;;28.60;16.40;;;17.80;99.90;;;;;;5009389;28;20250;-71
2023/04/09 12:02:43;;;;;;;28.00;14.63;;;17.70;99.90;;;;;;5017934;28;20656;-67
2023/04/09 12:05:11;;;;;;;24.92;14.43;;;17.80;99.90;;;;;;5014248;28;20202;-67
2023/04/09 12:07:38;;;;;;;25.33;14.07;;;17.90;99.90;;;;;;5009391;28;20226;-66
2023/04/09 12:10:09;;;;;;;26.13;15.40;;;17.90;99.90;;;;;;5003999;28;20612;-73
2023/04/09 12:12:45;;;;;;;18.33;13.25;;;17.80;99.90;;;;;;4998428;28;20187;-66
2023/04/09 12:15:22;;;;;;;30.98;15.77;;;17.70;99.90;;;;;;4997485;28;20241;-67
2023/04/09 12:17:53;;;;;;;26.45;14.85;;;17.40;99.90;;;;;;5004405;28;20226;-66
2023/04/09 12:20:32;;;;;;;19.83;12.40;;;17.70;99.90;;;;;;5004139;28;20549;-67
2023/04/09 12:22:59;;;;;;;24.20;13.88;;;18.00;99.90;;;;;;4998348;28;20186;-67
2023/04/09 12:25:26;;;;;;;21.45;12.75;;;18.20;99.90;;;;;;5013281;28;20195;-67
2023/04/09 12:27:53;;;;;;;22.77;14.23;;;18.30;99.90;;;;;;5000660;28;20192;-67
2023/04/09 12:30:18;;;;;;;19.40;12.90;;;18.20;99.90;;;;;;4996967;28;20192;-67
2023/04/09 12:32:45;;;;;;;24.48;13.55;;;18.40;99.90;;;;;;4999888;28;20188;-66
2023/04/09 12:35:10;;;;;;;18.17;11.50;;;17.90;99.90;;;;;;5003466;28;20190;-67